createdAt,value
2022-08-11T00:05:55.336Z,23.9
2022-08-11T00:11:35.846Z,24
2022-08-11T00:17:22.139Z,24
2022-08-11T00:24:34.054Z,24
2022-08-11T00:30:26.722Z,24.1
2022-08-11T00:37:20.670Z,24.1
2022-08-11T00:43:05.194Z,24.1
2022-08-11T00:48:34.366Z,24.1
2022-08-11T00:54:49.867Z,24.1
2022-08-11T01:01:14.735Z,24.1
2022-08-11T01:06:50.218Z,24.2
2022-08-11T01:13:18.859Z,24.2
2022-08-11T01:19:19.063Z,24.2
2022-08-11T01:26:13.190Z,24.2
2022-08-11T01:32:08.186Z,24.3
2022-08-11T01:37:47.285Z,24.3
2022-08-11T01:43:11.068Z,24.3
2022-08-11T01:48:43.526Z,24.3
2022-08-11T01:55:04.564Z,24.3
2022-08-11T02:00:56.693Z,24.3
2022-08-11T02:06:43.341Z,24.3
2022-08-11T02:12:38.704Z,24.3
2022-08-11T02:18:28.978Z,24.3
2022-08-11T02:24:56.429Z,24.3
2022-08-11T02:30:42.654Z,24.3
2022-08-11T02:37:45.971Z,24.3
2022-08-11T02:43:25.785Z,24.4
2022-08-11T02:49:23.367Z,24.4
2022-08-11T02:55:04.016Z,24.4
2022-08-11T03:01:02.246Z,24.4
2022-08-11T03:06:50.055Z,24.4
2022-08-11T03:12:34.581Z,24.4
2022-08-11T03:18:03.203Z,24.4
2022-08-11T03:24:27.475Z,24.4
2022-08-11T03:29:58.980Z,24.4
2022-08-11T03:35:37.964Z,24.4
2022-08-11T03:42:37.369Z,24.4
2022-08-11T03:48:29.443Z,24.4
2022-08-11T03:54:20.741Z,24.4
2022-08-11T04:00:04.477Z,24.3
2022-08-11T04:05:44.219Z,24.3
2022-08-11T04:11:28.500Z,24.2
2022-08-11T04:17:39.242Z,24.2
2022-08-11T04:24:13.727Z,24.1
2022-08-11T04:32:07.552Z,24.1
2022-08-11T04:37:51.221Z,24.1
2022-08-11T04:43:31.884Z,24
2022-08-11T04:50:07.668Z,24
2022-08-11T04:56:15.926Z,24
2022-08-11T05:01:55.550Z,24
2022-08-11T05:07:36.949Z,23.9
2022-08-11T05:13:04.901Z,24
2022-08-11T05:18:43.788Z,23.9
2022-08-11T05:24:30.656Z,24
2022-08-11T05:31:49.744Z,24
2022-08-11T05:38:33.245Z,24
2022-08-11T05:45:49.966Z,24
2022-08-11T05:52:12.742Z,24
2022-08-11T05:58:59.434Z,24
2022-08-11T06:04:48.842Z,24.1
2022-08-11T06:10:35.237Z,24.1
2022-08-11T06:16:30.784Z,24.1
2022-08-11T06:22:20.441Z,24.1
2022-08-11T06:28:20.924Z,24.1
2022-08-11T06:34:10.869Z,24.1
2022-08-11T06:39:55.388Z,24.1
2022-08-11T06:45:35.889Z,24.1
2022-08-11T06:51:17.467Z,24.1
2022-08-11T06:58:55.400Z,24.2
2022-08-11T07:04:18.812Z,24.2
2022-08-11T07:11:30.435Z,24.2
2022-08-11T07:18:26.701Z,24.2
2022-08-11T07:25:18.046Z,24.2
2022-08-11T07:30:59.393Z,24.3
2022-08-11T07:37:09.576Z,24.3
2022-08-11T07:42:55.970Z,24.3
2022-08-11T07:48:34.445Z,24.3
2022-08-11T07:54:37.541Z,24.3
2022-08-11T08:02:51.323Z,24.3
2022-08-11T08:08:55.770Z,24.3
2022-08-11T08:14:35.675Z,24.4
2022-08-11T08:20:37.820Z,24.4
2022-08-11T08:27:08.455Z,24.4
2022-08-11T08:32:51.568Z,24.4
2022-08-11T08:39:10.937Z,24.4
2022-08-11T08:45:42.563Z,24.4
2022-08-11T08:52:21.628Z,24.4
2022-08-11T08:58:29.952Z,24.4
2022-08-11T09:04:57.609Z,24.4
2022-08-11T09:10:29.450Z,24.4
2022-08-11T09:16:13.009Z,24.4
2022-08-11T09:22:22.687Z,24.5
2022-08-11T09:29:01.111Z,24.4
2022-08-11T09:34:42.844Z,24.5
2022-08-11T09:40:31.340Z,24.5
2022-08-11T09:47:07.875Z,24.5
2022-08-11T09:53:34.747Z,24.5
2022-08-11T09:59:50.019Z,24.6
2022-08-11T10:05:36.964Z,24.6
2022-08-11T10:11:26.068Z,24.5
2022-08-11T10:19:00.765Z,24.6
2022-08-11T10:25:09.969Z,24.6
2022-08-11T10:32:49.462Z,24.6
2022-08-11T10:39:52.431Z,24.6
2022-08-11T10:47:04.747Z,24.6
2022-08-11T10:53:15.643Z,24.6
2022-08-11T10:59:15.477Z,24.6
2022-08-11T11:05:24.898Z,24.6
2022-08-11T11:11:54.568Z,24.6
2022-08-11T11:17:48.306Z,24.6
2022-08-11T11:23:56.752Z,24.6
2022-08-11T11:29:47.387Z,24.6
2022-08-11T11:36:17.179Z,24.7
2022-08-11T11:42:15.143Z,24.7
2022-08-11T11:48:12.461Z,24.7
2022-08-11T11:54:03.646Z,24.7
2022-08-11T12:00:01.882Z,24.7
2022-08-11T12:05:50.677Z,24.7
2022-08-11T12:11:52.392Z,24.8
2022-08-11T12:18:30.722Z,24.8
2022-08-11T12:26:43.507Z,24.8
2022-08-11T12:32:50.681Z,24.8
2022-08-11T12:39:11.384Z,24.8
2022-08-11T12:46:45.946Z,24.8
2022-08-11T12:54:14.626Z,24.8
2022-08-11T13:00:29.935Z,24.8
2022-08-11T13:06:18.778Z,24.8
2022-08-11T13:12:30.869Z,24.8
2022-08-11T13:18:53.271Z,24.8
2022-08-11T13:24:52.857Z,24.8
2022-08-11T13:31:03.864Z,24.8
2022-08-11T13:36:48.370Z,24.8
2022-08-11T13:43:58.046Z,24.8
2022-08-11T13:49:39.653Z,24.8
2022-08-11T13:55:10.219Z,24.8
2022-08-11T14:05:02.891Z,24.8
2022-08-11T14:10:50.969Z,24.8
2022-08-11T14:18:22.174Z,24.8
2022-08-11T14:24:39.922Z,24.9
2022-08-11T14:32:20.864Z,24.9
2022-08-11T14:38:55.983Z,24.9
2022-08-11T14:45:54.459Z,24.9
2022-08-11T14:52:04.991Z,24.9
2022-08-11T14:58:29.509Z,24.9
2022-08-11T15:04:51.645Z,24.9
2022-08-11T15:11:21.303Z,24.9
2022-08-11T15:17:33.692Z,24.9
2022-08-11T15:23:23.154Z,24.9
2022-08-11T15:29:01.160Z,24.9
2022-08-11T15:35:18.334Z,24.9
2022-08-11T15:41:38.430Z,24.9
2022-08-11T15:47:54.570Z,24.9
2022-08-11T15:54:15.923Z,24.9
2022-08-11T16:00:41.212Z,24.9
2022-08-11T16:07:56.925Z,24.9
2022-08-11T16:14:16.057Z,24.9
2022-08-11T16:19:57.960Z,24.9
2022-08-11T16:28:48.463Z,24.9
2022-08-11T16:35:15.623Z,24.9
2022-08-11T16:40:57.993Z,24.9
2022-08-11T16:48:32.971Z,24.9
2022-08-11T16:55:00.696Z,24.9
2022-08-11T17:01:38.790Z,24.9
2022-08-11T17:07:50.089Z,24.9
2022-08-11T17:14:00.066Z,24.8
2022-08-11T17:20:59.474Z,24.9
2022-08-11T17:27:11.138Z,24.8
2022-08-11T17:33:31.045Z,24.9
2022-08-11T17:39:16.698Z,24.8
2022-08-11T17:45:06.331Z,24.8
2022-08-11T17:50:59.761Z,24.8
2022-08-11T17:57:38.260Z,24.8
2022-08-11T18:03:42.565Z,24.8
2022-08-11T18:09:39.733Z,24.8
2022-08-11T18:16:12.386Z,24.8
2022-08-11T18:21:44.475Z,24.8
2022-08-11T18:27:49.840Z,24.8
2022-08-11T18:35:02.316Z,24.8
2022-08-11T18:40:49.033Z,24.8
2022-08-11T18:46:57.474Z,24.8
2022-08-11T18:54:17.574Z,24.8
2022-08-11T19:00:08.018Z,24.8
2022-08-11T19:07:15.478Z,24.8
2022-08-11T19:13:07.770Z,24.8
2022-08-11T19:19:09.085Z,24.8
2022-08-11T19:24:37.532Z,24.8
2022-08-11T19:30:47.666Z,24.7
2022-08-11T19:37:05.144Z,24.7
2022-08-11T19:43:36.915Z,24.7
2022-08-11T19:49:54.855Z,24.8
2022-08-11T19:55:32.524Z,24.7
2022-08-11T20:01:20.868Z,24.7
2022-08-11T20:07:42.165Z,24.7
2022-08-11T20:14:16.711Z,24.7
2022-08-11T20:19:55.848Z,24.7
2022-08-11T20:26:08.647Z,24.7
2022-08-11T20:32:00.045Z,24.7
2022-08-11T20:37:50.925Z,24.7
2022-08-11T20:44:55.880Z,24.7
2022-08-11T20:51:33.775Z,24.7
2022-08-11T20:59:13.663Z,24.7
2022-08-11T21:17:44.915Z,24.7
2022-08-11T21:25:06.197Z,24.8
2022-08-11T21:30:58.144Z,24.7
2022-08-11T21:36:37.071Z,24.8
2022-08-11T21:42:39.631Z,24.8
2022-08-11T21:48:35.267Z,24.8
2022-08-11T21:54:17.970Z,24.8
2022-08-11T22:00:02.655Z,24.8
2022-08-11T22:05:33.157Z,24.8
2022-08-11T22:11:49.347Z,24.8
2022-08-11T22:18:39.708Z,24.8
2022-08-11T22:25:58.616Z,24.8
2022-08-11T22:32:03.080Z,24.8
2022-08-11T22:38:17.669Z,24.8
2022-08-11T22:43:56.503Z,24.8
2022-08-11T22:49:20.103Z,24.8
2022-08-11T22:55:25.338Z,24.8
2022-08-11T23:01:05.156Z,24.8
2022-08-11T23:07:49.300Z,24.8
2022-08-11T23:13:22.656Z,24.8
2022-08-11T23:19:01.407Z,24.8
2022-08-11T23:26:08.874Z,24.9
2022-08-11T23:32:07.670Z,24.8
2022-08-11T23:39:31.940Z,24.9
2022-08-11T23:45:18.516Z,24.9
2022-08-11T23:51:10.004Z,24.9
2022-08-11T23:57:06.898Z,24.9
